Time;durP1;ratioP1;P1;durP2;ratioP2;P2;SDS_P1;SDS_P2;PMS_P1;PMS_P2;Temp;Humidity;BMP_temperature;BMP_pressure;BME280_temperature;BME280_humidity;BME280_pressure;Samples;Min_cycle;Max_cycle;Signal;HPM_P1;HPM_P2
2021/03/22 00:01:12;;;;;;;39.22;8.55;;;3.00;99.90;;;;;;4196089;28;20033;-73
2021/03/22 00:03:15;;;;;;;31.23;9.77;;;3.00;99.90;;;;;;4195615;28;20021;-72
2021/03/22 00:05:17;;;;;;;;;;;3.00;99.90;;;;;;4194640;28;20033;-73
2021/03/22 00:07:17;;;;;;;34.85;8.35;;;2.90;99.90;;;;;;4195836;28;20026;-72
2021/03/22 00:09:18;;;;;;;26.52;8.05;;;2.90;99.90;;;;;;4193488;28;20481;-73
2021/03/22 00:11:18;;;;;;;37.22;8.40;;;2.90;99.90;;;;;;4195673;28;20051;-72
2021/03/22 00:13:22;;;;;;;35.95;8.85;;;2.90;99.90;;;;;;4195091;28;20028;-73
2021/03/22 00:15:24;;;;;;;30.15;8.00;;;2.90;99.90;;;;;;4195510;28;20037;-72
2021/03/22 00:17:24;;;;;;;32.10;8.50;;;2.90;99.90;;;;;;4194234;28;20372;-73
2021/03/22 00:19:27;;;;;;;39.58;8.90;;;2.80;99.90;;;;;;4195492;28;20047;-72
2021/03/22 00:21:28;;;;;;;35.38;7.45;;;2.80;99.90;;;;;;4195737;28;20032;-73
2021/03/22 00:23:29;;;;;;;32.13;8.30;;;2.90;99.90;;;;;;4195739;28;20032;-73
2021/03/22 00:25:29;;;;;;;37.90;9.15;;;2.80;99.90;;;;;;4193957;28;20048;-73
2021/03/22 00:27:30;;;;;;;37.85;8.82;;;2.80;99.90;;;;;;4193800;28;20135;-72
2021/03/22 00:29:31;;;;;;;29.25;10.55;;;2.80;99.90;;;;;;4194206;28;20462;-72
2021/03/22 00:31:32;;;;;;;28.15;8.30;;;2.70;99.90;;;;;;4193805;28;20411;-73
2021/03/22 00:33:32;;;;;;;35.75;9.05;;;2.60;99.90;;;;;;4195250;28;20068;-73
2021/03/22 00:35:34;;;;;;;35.58;11.18;;;2.60;99.90;;;;;;4195145;28;20097;-72
2021/03/22 00:37:35;;;;;;;47.90;10.18;;;2.50;99.90;;;;;;4195604;28;20073;-73
2021/03/22 00:39:36;;;;;;;33.03;8.68;;;2.50;99.90;;;;;;4195240;28;20123;-72
2021/03/22 00:41:36;;;;;;;33.55;11.20;;;2.50;99.90;;;;;;4195063;28;20452;-72
2021/03/22 00:43:37;;;;;;;33.72;9.98;;;2.50;99.90;;;;;;4193936;28;20021;-72
2021/03/22 00:45:38;;;;;;;41.38;9.98;;;2.40;99.90;;;;;;4193627;28;20472;-72
2021/03/22 00:47:38;;;;;;;42.08;11.25;;;2.30;99.90;;;;;;4193707;28;20032;-73
2021/03/22 00:49:39;;;;;;;41.85;9.85;;;2.40;99.90;;;;;;4193877;28;20213;-72
2021/03/22 00:51:40;;;;;;;28.60;8.30;;;2.40;99.90;;;;;;4195237;28;20454;-72
2021/03/22 00:53:40;;;;;;;38.15;9.63;;;2.40;99.90;;;;;;4195076;28;20040;-72
2021/03/22 00:55:42;;;;;;;29.52;9.18;;;2.40;99.90;;;;;;4195080;28;20054;-72
2021/03/22 00:57:43;;;;;;;31.90;9.05;;;2.40;99.90;;;;;;4195116;28;20498;-72
2021/03/22 00:59:43;;;;;;;45.08;8.90;;;2.40;99.90;;;;;;4194993;28;20111;-72
2021/03/22 01:01:44;;;;;;;43.47;9.20;;;2.30;99.90;;;;;;4193227;28;20102;-72
2021/03/22 01:03:45;;;;;;;49.78;9.45;;;2.20;99.90;;;;;;4194930;28;20058;-72
2021/03/22 01:05:46;;;;;;;37.13;9.45;;;2.10;99.90;;;;;;4194909;28;20095;-73
2021/03/22 01:07:47;;;;;;;37.78;9.75;;;2.00;99.90;;;;;;4193672;28;20459;-72
2021/03/22 01:09:48;;;;;;;42.42;9.82;;;2.00;99.90;;;;;;4194856;28;20065;-73
2021/03/22 01:11:48;;;;;;;33.70;10.88;;;2.00;99.90;;;;;;4194755;28;20043;-73
2021/03/22 01:13:55;;;;;;;37.40;10.02;;;2.00;99.90;;;;;;4194767;28;20036;-73
2021/03/22 01:15:56;;;;;;;36.55;9.05;;;1.90;99.90;;;;;;4193417;28;20518;-72
2021/03/22 01:17:57;;;;;;;38.00;9.57;;;1.80;99.90;;;;;;4194748;28;20091;-72
2021/03/22 01:19:58;;;;;;;41.00;8.80;;;1.80;99.90;;;;;;4194949;28;20631;-73
2021/03/22 01:22:01;;;;;;;34.13;10.20;;;1.80;99.90;;;;;;4194784;28;20082;-72
2021/03/22 01:24:04;;;;;;;37.08;9.18;;;1.90;99.90;;;;;;4194086;28;20036;-72
2021/03/22 01:26:06;;;;;;;41.67;9.93;;;1.90;99.90;;;;;;4193365;28;20720;-72
2021/03/22 01:28:10;;;;;;;40.38;8.82;;;2.10;99.90;;;;;;4192512;28;20046;-73
2021/03/22 01:30:42;;;;;;;48.03;11.35;;;2.10;99.90;;;;;;4192344;28;20028;-72
2021/03/22 01:32:43;;;;;;;41.50;10.43;;;2.20;99.90;;;;;;4187053;28;20037;-72
2021/03/22 01:34:44;;;;;;;41.05;9.65;;;2.30;99.90;;;;;;4189687;28;20126;-72
2021/03/22 01:36:45;;;;;;;40.50;10.13;;;2.40;99.90;;;;;;4191540;28;20111;-72
2021/03/22 01:38:46;;;;;;;39.15;10.02;;;2.50;99.90;;;;;;4191408;28;20651;-73
2021/03/22 01:41:17;;;;;;;41.15;10.60;;;2.50;99.90;;;;;;4191398;28;20029;-73
2021/03/22 01:43:40;;;;;;;46.08;11.73;;;2.50;99.90;;;;;;4190731;28;20493;-72
2021/03/22 01:45:40;;;;;;;36.22;9.13;;;2.50;99.90;;;;;;4192730;28;20025;-72
2021/03/22 01:47:41;;;;;;;41.90;10.73;;;2.50;99.90;;;;;;4192947;28;20039;-72
2021/03/22 01:50:00;;;;;;;39.28;11.00;;;2.50;99.90;;;;;;4191840;28;20032;-72
2021/03/22 01:52:04;;;;;;;42.55;10.15;;;2.60;99.90;;;;;;4192924;28;20047;-73
2021/03/22 01:54:07;;;;;;;41.17;10.13;;;2.50;99.90;;;;;;4192979;28;20021;-72
2021/03/22 01:56:20;;;;;;;52.45;10.32;;;2.40;99.90;;;;;;4194358;28;20098;-73
2021/03/22 01:58:20;;;;;;;41.40;11.10;;;2.40;99.90;;;;;;4190498;28;20040;-73
2021/03/22 02:00:28;;;;;;;40.70;10.27;;;2.40;99.90;;;;;;4191971;28;20036;-73
2021/03/22 02:02:28;;;;;;;43.15;10.63;;;2.40;99.90;;;;;;4194388;28;20040;-72
2021/03/22 02:04:30;;;;;;;52.65;13.27;;;2.40;99.90;;;;;;4192804;28;20033;-73
2021/03/22 02:06:33;;;;;;;51.92;10.00;;;2.30;99.90;;;;;;4194212;28;20032;-73
2021/03/22 02:08:40;;;;;;;40.53;10.83;;;2.30;99.90;;;;;;4194318;28;20055;-72
2021/03/22 02:10:42;;;;;;;44.80;11.82;;;2.30;99.90;;;;;;4194593;28;20029;-72
2021/03/22 02:12:43;;;;;;;31.77;9.55;;;2.30;99.90;;;;;;4194707;28;20086;-73
2021/03/22 02:14:44;;;;;;;55.70;10.20;;;2.30;99.90;;;;;;4194013;28;20440;-72
2021/03/22 02:16:59;;;;;;;51.70;11.10;;;2.30;99.90;;;;;;4194333;28;20032;-72
2021/03/22 02:19:36;;;;;;;36.10;9.82;;;2.30;99.90;;;;;;4193048;28;20108;-72
2021/03/22 02:21:52;;;;;;;51.97;12.32;;;2.30;99.90;;;;;;4191378;28;20041;-72
2021/03/22 02:24:27;;;;;;;54.78;11.48;;;2.30;99.90;;;;;;4192709;28;20044;-73
2021/03/22 02:26:31;;;;;;;51.83;11.63;;;2.30;99.90;;;;;;4193757;28;20047;-72
2021/03/22 02:28:59;;;;;;;51.85;12.68;;;2.40;99.90;;;;;;4192573;28;20045;-72
2021/03/22 02:31:03;;;;;;;53.92;13.40;;;2.40;99.90;;;;;;4192418;28;20041;-72
2021/03/22 02:33:12;;;;;;;50.70;11.75;;;2.50;99.90;;;;;;4192651;28;20510;-73
2021/03/22 02:35:31;;;;;;;52.45;13.00;;;2.70;99.90;;;;;;4194535;28;20131;-73
2021/03/22 02:37:48;;;;;;;50.45;12.43;;;2.90;99.90;;;;;;4197239;28;20124;-72
2021/03/22 02:40:06;;;;;;;45.60;11.93;;;3.00;99.90;;;;;;4195652;28;20033;-73
2021/03/22 02:42:11;;;;;;;54.30;11.25;;;3.00;99.90;;;;;;4196993;28;20024;-72
2021/03/22 02:44:27;;;;;;;45.70;11.55;;;3.10;99.90;;;;;;4196923;28;20024;-72
2021/03/22 02:46:29;;;;;;;50.45;12.05;;;3.10;99.90;;;;;;4196665;28;20471;-73
2021/03/22 02:48:31;;;;;;;45.03;13.43;;;3.20;99.90;;;;;;4191881;28;20040;-72
2021/03/22 02:50:37;;;;;;;45.03;13.10;;;3.30;99.90;;;;;;4197027;28;20037;-72
2021/03/22 02:52:56;;;;;;;63.10;13.63;;;3.30;99.90;;;;;;4197382;28;20096;-72
2021/03/22 02:55:27;;;;;;;51.70;12.32;;;3.20;99.90;;;;;;4192338;28;20036;-73
2021/03/22 02:57:59;;;;;;;47.22;13.05;;;3.30;99.90;;;;;;4196535;28;20048;-73
2021/03/22 03:00:26;;;;;;;53.78;12.73;;;3.30;99.90;;;;;;4185053;28;20028;-72
2021/03/22 03:02:30;;;;;;;52.10;12.75;;;3.40;99.90;;;;;;4195634;28;20792;-73
2021/03/22 03:04:35;;;;;;;52.38;12.90;;;3.40;99.90;;;;;;4195501;28;20037;-73
2021/03/22 03:06:49;;;;;;;56.25;12.52;;;3.40;99.90;;;;;;4195351;28;20069;-73
2021/03/22 03:08:50;;;;;;;44.63;12.45;;;3.40;99.90;;;;;;4196514;28;20052;-73
2021/03/22 03:10:52;;;;;;;63.78;13.73;;;3.50;99.90;;;;;;4194950;28;20043;-72
2021/03/22 03:12:52;;;;;;;50.33;12.77;;;3.50;99.90;;;;;;4195374;28;20520;-73
2021/03/22 03:14:55;;;;;;;66.38;13.85;;;3.50;99.90;;;;;;4196526;28;20052;-73
2021/03/22 03:16:55;;;;;;;56.55;12.10;;;3.60;99.90;;;;;;4196536;28;20072;-73
2021/03/22 03:18:56;;;;;;;53.45;12.95;;;3.60;99.90;;;;;;4196467;28;20043;-73
2021/03/22 03:20:58;;;;;;;65.32;16.00;;;3.60;99.90;;;;;;4194845;28;20049;-73
2021/03/22 03:22:59;;;;;;;56.50;14.02;;;3.70;99.90;;;;;;4195187;28;20044;-72
2021/03/22 03:25:00;;;;;;;65.80;14.95;;;3.70;99.90;;;;;;4196322;28;20077;-73
2021/03/22 03:27:00;;;;;;;50.95;14.13;;;3.80;99.90;;;;;;4196571;28;20071;-73
2021/03/22 03:29:03;;;;;;;55.30;12.88;;;3.80;99.90;;;;;;4195900;28;20127;-74
2021/03/22 03:31:03;;;;;;;53.67;13.30;;;3.80;99.90;;;;;;4196205;28;20028;-73
2021/03/22 03:33:11;;;;;;;62.45;15.55;;;3.80;99.90;;;;;;4194924;28;20133;-73
2021/03/22 03:35:14;;;;;;;51.30;14.38;;;3.80;99.90;;;;;;4195160;28;20040;-73
2021/03/22 03:37:14;;;;;;;52.53;14.30;;;3.80;99.90;;;;;;4195074;28;20031;-73
2021/03/22 03:39:15;;;;;;;45.50;13.07;;;3.80;99.90;;;;;;4196428;28;20028;-72
2021/03/22 03:41:15;;;;;;;59.67;13.32;;;3.90;99.90;;;;;;4196093;28;20032;-72
2021/03/22 03:43:17;;;;;;;59.50;14.30;;;3.90;99.90;;;;;;4196049;28;20047;-73
2021/03/22 03:45:20;;;;;;;68.43;14.20;;;4.00;99.90;;;;;;4196312;28;20029;-72
2021/03/22 03:47:21;;;;;;;;;;;4.00;99.90;;;;;;4196445;28;20458;-73
2021/03/22 03:49:22;;;;;;;64.35;12.95;;;3.90;99.90;;;;;;4194791;28;19924;-72
2021/03/22 03:51:22;;;;;;;47.50;12.57;;;3.90;99.90;;;;;;4194636;28;20064;-72
2021/03/22 03:53:23;;;;;;;48.97;13.43;;;3.90;99.90;;;;;;4195829;28;20891;-73
2021/03/22 03:55:26;;;;;;;54.78;14.18;;;4.00;99.90;;;;;;4195562;28;20048;-73
2021/03/22 03:57:27;;;;;;;59.25;15.40;;;4.10;99.90;;;;;;4195944;28;20036;-73
2021/03/22 03:59:28;;;;;;;58.30;14.95;;;4.10;99.90;;;;;;4194551;28;20391;-73
2021/03/22 04:01:28;;;;;;;53.78;13.23;;;4.10;99.90;;;;;;4194803;28;20067;-72
2021/03/22 04:03:30;;;;;;;53.42;12.93;;;4.10;99.90;;;;;;4194516;28;20032;-73
2021/03/22 04:05:30;;;;;;;50.90;15.52;;;4.10;99.90;;;;;;4194384;28;20049;-73
2021/03/22 04:07:31;;;;;;;60.80;13.15;;;4.10;99.90;;;;;;4194391;28;20055;-74
2021/03/22 04:09:32;;;;;;;58.15;13.93;;;4.10;99.90;;;;;;4195695;28;20462;-73
2021/03/22 04:11:36;;;;;;;44.08;14.98;;;4.10;99.90;;;;;;4194258;28;20503;-73
2021/03/22 04:13:37;;;;;;;54.63;14.20;;;4.10;99.90;;;;;;4194113;28;20541;-73
2021/03/22 04:15:38;;;;;;;51.33;11.77;;;4.20;99.90;;;;;;4195393;28;20033;-73
2021/03/22 04:17:39;;;;;;;50.60;12.27;;;4.30;99.90;;;;;;4195846;28;20103;-73
2021/03/22 04:19:42;;;;;;;47.33;12.82;;;4.30;99.90;;;;;;4195829;28;20142;-73
2021/03/22 04:21:45;;;;;;;47.20;12.52;;;4.30;99.90;;;;;;4195585;28;20040;-73
2021/03/22 04:23:47;;;;;;;45.60;12.50;;;4.40;99.90;;;;;;4194170;28;20124;-72
2021/03/22 04:25:48;;;;;;;42.50;12.45;;;4.30;99.90;;;;;;4195220;28;20027;-73
2021/03/22 04:27:49;;;;;;;38.67;12.00;;;4.40;99.90;;;;;;4195435;28;20081;-73
2021/03/22 04:29:49;;;;;;;40.67;13.48;;;4.30;99.90;;;;;;4195573;28;20115;-72
2021/03/22 04:31:50;;;;;;;43.47;11.57;;;4.30;99.90;;;;;;4193959;28;20033;-73
2021/03/22 04:33:52;;;;;;;44.42;13.75;;;4.30;99.90;;;;;;4195434;28;20488;-72
2021/03/22 04:35:53;;;;;;;49.58;12.18;;;4.30;99.90;;;;;;4195066;28;20554;-73
2021/03/22 04:37:53;;;;;;;62.42;13.38;;;4.40;99.90;;;;;;4193963;28;20032;-73
2021/03/22 04:39:54;;;;;;;44.28;12.15;;;4.30;99.90;;;;;;4195441;28;20044;-73
2021/03/22 04:41:55;;;;;;;47.83;13.68;;;4.30;99.90;;;;;;4194106;28;20116;-72
2021/03/22 04:43:55;;;;;;;41.17;12.52;;;4.40;99.90;;;;;;4195354;28;20025;-73
2021/03/22 04:45:56;;;;;;;48.20;13.05;;;4.40;99.90;;;;;;4194750;28;20033;-73
2021/03/22 04:47:57;;;;;;;51.20;13.07;;;4.40;99.90;;;;;;4195036;28;20025;-73
2021/03/22 04:49:58;;;;;;;33.92;11.93;;;4.40;99.90;;;;;;4193929;28;20033;-72
2021/03/22 04:51:58;;;;;;;46.25;12.00;;;4.40;99.90;;;;;;4193646;28;20462;-72
2021/03/22 04:53:59;;;;;;;53.03;12.60;;;4.50;99.90;;;;;;4193490;28;20044;-73
2021/03/22 04:56:00;;;;;;;49.00;12.45;;;4.50;99.90;;;;;;4194907;28;20028;-73
2021/03/22 04:58:01;;;;;;;32.22;9.50;;;4.50;99.90;;;;;;4194837;28;20430;-73
2021/03/22 05:00:09;;;;;;;40.97;11.75;;;4.40;99.90;;;;;;4195348;28;20029;-73
2021/03/22 05:02:10;;;;;;;41.47;11.07;;;4.50;99.90;;;;;;4180101;28;20036;-72
2021/03/22 05:04:10;;;;;;;35.40;11.00;;;4.60;99.90;;;;;;4186832;28;20069;-72
2021/03/22 05:06:11;;;;;;;41.58;12.50;;;4.60;99.90;;;;;;4195021;28;20500;-72
2021/03/22 05:08:14;;;;;;;50.22;11.05;;;4.50;99.90;;;;;;4189154;28;20106;-73
2021/03/22 05:10:26;;;;;;;38.83;10.20;;;4.60;99.90;;;;;;4193409;28;20459;-73
2021/03/22 05:12:27;;;;;;;48.95;11.85;;;4.60;99.90;;;;;;4188812;28;20040;-73
2021/03/22 05:14:27;;;;;;;42.53;11.77;;;4.60;99.90;;;;;;4193262;28;20040;-73
2021/03/22 05:16:28;;;;;;;41.15;11.27;;;4.60;99.90;;;;;;4193441;28;20092;-72
2021/03/22 05:18:31;;;;;;;35.05;10.98;;;4.60;99.90;;;;;;4194985;28;20103;-73
2021/03/22 05:20:53;;;;;;;39.67;10.80;;;4.60;99.90;;;;;;4194873;28;20033;-72
2021/03/22 05:22:54;;;;;;;46.80;10.15;;;4.70;99.90;;;;;;4193230;28;20040;-72
2021/03/22 05:24:55;;;;;;;38.75;10.57;;;4.70;99.90;;;;;;4193259;28;20032;-73
2021/03/22 05:26:56;;;;;;;36.75;11.00;;;4.70;99.90;;;;;;4193456;28;20059;-72
2021/03/22 05:28:56;;;;;;;37.53;11.05;;;4.70;99.90;;;;;;4194625;28;20052;-73
2021/03/22 05:30:58;;;;;;;43.47;10.65;;;4.60;99.90;;;;;;4194505;28;20050;-73
2021/03/22 05:33:01;;;;;;;37.70;11.55;;;4.60;99.90;;;;;;4191445;28;20119;-72
2021/03/22 05:35:09;;;;;;;40.53;9.88;;;4.70;99.90;;;;;;4190668;28;20492;-73
2021/03/22 05:37:09;;;;;;;41.72;10.13;;;4.60;99.90;;;;;;4193607;28;20131;-74
2021/03/22 05:39:11;;;;;;;32.78;9.40;;;4.70;99.90;;;;;;4193007;28;20031;-73
2021/03/22 05:41:18;;;;;;;35.35;11.65;;;4.70;99.90;;;;;;4192098;28;20024;-72
2021/03/22 05:43:40;;;;;;;40.58;11.35;;;4.70;99.90;;;;;;4191603;28;20040;-73
2021/03/22 05:45:56;;;;;;;42.78;11.10;;;4.80;99.90;;;;;;4193357;28;20048;-73
2021/03/22 05:48:11;;;;;;;37.17;11.35;;;4.70;99.90;;;;;;4187767;28;20128;-72
2021/03/22 05:50:32;;;;;;;33.83;10.80;;;4.70;99.90;;;;;;4189214;28;20039;-74
2021/03/22 05:53:10;;;;;;;40.30;10.68;;;4.70;99.90;;;;;;4180886;28;20036;-73
2021/03/22 05:55:47;;;;;;;41.45;11.27;;;4.70;99.90;;;;;;4183703;28;20037;-73
2021/03/22 05:58:08;;;;;;;33.00;9.27;;;4.70;99.90;;;;;;4184363;28;20040;-73
2021/03/22 06:00:19;;;;;;;32.53;9.73;;;4.80;99.90;;;;;;4186168;28;20070;-73
2021/03/22 06:03:01;;;;;;;42.72;12.70;;;4.80;99.90;;;;;;4189717;28;20091;-73
2021/03/22 06:05:13;;;;;;;37.20;9.75;;;4.90;99.90;;;;;;4139112;28;20041;-73
2021/03/22 06:07:19;;;;;;;38.22;9.88;;;4.90;99.90;;;;;;4141589;28;20131;-73
2021/03/22 06:09:42;;;;;;;38.65;10.25;;;5.00;99.90;;;;;;4142206;28;20178;-74
2021/03/22 06:11:58;;;;;;;29.63;8.55;;;5.00;99.90;;;;;;4187164;28;20037;-73
2021/03/22 06:14:16;;;;;;;29.10;9.40;;;5.00;99.90;;;;;;4183147;28;20483;-74
2021/03/22 06:16:33;;;;;;;38.05;9.63;;;5.00;99.90;;;;;;4183723;28;20060;-73
2021/03/22 06:18:37;;;;;;;32.55;9.40;;;5.00;99.90;;;;;;4197521;28;20037;-73
2021/03/22 06:20:39;;;;;;;29.13;9.00;;;5.10;99.90;;;;;;4197340;28;20037;-73
2021/03/22 06:22:40;;;;;;;35.63;9.05;;;5.10;99.90;;;;;;4196173;28;20047;-74
2021/03/22 06:24:41;;;;;;;32.78;10.20;;;5.20;99.90;;;;;;4197415;28;20507;-73
2021/03/22 06:26:43;;;;;;;30.73;8.25;;;5.30;99.90;;;;;;4196085;28;20064;-73
2021/03/22 06:28:48;;;;;;;33.97;10.50;;;5.30;99.90;;;;;;4196007;28;20033;-74
2021/03/22 06:31:01;;;;;;;29.15;8.18;;;5.40;99.90;;;;;;4197106;28;20064;-73
2021/03/22 06:33:02;;;;;;;25.30;7.75;;;5.40;99.90;;;;;;4195608;28;20082;-73
2021/03/22 06:35:08;;;;;;;27.83;9.02;;;5.50;99.90;;;;;;4194950;28;20100;-73
2021/03/22 06:37:14;;;;;;;31.52;9.48;;;5.50;99.90;;;;;;4195535;28;20028;-73
2021/03/22 06:39:14;;;;;;;26.27;8.52;;;5.50;99.90;;;;;;4194068;28;20036;-73
2021/03/22 06:41:38;;;;;;;30.63;8.82;;;5.50;99.90;;;;;;4195539;28;20028;-73
2021/03/22 06:43:52;;;;;;;35.30;9.27;;;5.50;99.90;;;;;;4197269;28;20029;-73
2021/03/22 06:46:15;;;;;;;31.25;8.60;;;5.50;99.90;;;;;;4195913;28;20043;-73
2021/03/22 06:48:20;;;;;;;26.92;8.18;;;5.50;99.90;;;;;;4192412;28;20115;-72
2021/03/22 06:50:30;;;;;;;22.38;7.45;;;5.60;99.90;;;;;;4194601;28;20107;-73
2021/03/22 06:52:41;;;;;;;27.38;7.38;;;5.60;99.90;;;;;;4196602;28;20119;-74
2021/03/22 06:54:46;;;;;;;30.20;7.85;;;5.70;99.90;;;;;;4194099;28;20060;-73
2021/03/22 06:57:03;;;;;;;23.73;7.03;;;5.70;99.90;;;;;;4192538;28;20033;-72
2021/03/22 06:59:19;;;;;;;15.38;5.50;;;5.80;99.90;;;;;;4195675;28;21952;-73
2021/03/22 07:01:22;;;;;;;20.52;7.45;;;6.00;99.90;;;;;;4196558;28;20499;-73
2021/03/22 07:03:26;;;;;;;20.13;6.78;;;6.00;99.90;;;;;;4195013;28;20039;-73
2021/03/22 07:05:38;;;;;;;16.63;5.30;;;6.00;99.90;;;;;;4190172;28;20138;-73
2021/03/22 07:07:51;;;;;;;22.80;6.35;;;6.00;99.90;;;;;;4189695;28;20484;-71
2021/03/22 07:09:55;;;;;;;17.05;6.30;;;6.00;99.90;;;;;;4194266;28;20033;-72
2021/03/22 07:11:55;;;;;;;20.90;6.95;;;6.00;99.90;;;;;;4195061;28;20060;-73
2021/03/22 07:14:04;;;;;;;16.33;5.55;;;6.00;99.90;;;;;;4188932;28;20548;-74
2021/03/22 07:16:16;;;;;;;16.63;5.72;;;6.10;99.90;;;;;;4189634;28;20033;-72
2021/03/22 07:18:27;;;;;;;13.32;5.03;;;6.10;99.90;;;;;;4190277;28;20048;-72
2021/03/22 07:20:29;;;;;;;21.42;6.70;;;6.20;99.90;;;;;;4182151;28;20498;-72
2021/03/22 07:22:30;;;;;;;18.10;5.50;;;6.10;99.90;;;;;;4193241;28;20063;-72
2021/03/22 07:24:39;;;;;;;17.73;6.13;;;6.20;99.90;;;;;;4196357;28;20384;-72
2021/03/22 07:26:51;;;;;;;18.77;5.90;;;6.30;99.90;;;;;;4187261;28;20143;-72
2021/03/22 07:29:22;;;;;;;17.37;5.37;;;6.40;99.90;;;;;;4188173;28;20609;-73
2021/03/22 07:31:33;;;;;;;15.07;5.82;;;6.40;99.90;;;;;;4190668;28;20406;-72
2021/03/22 07:33:40;;;;;;;16.10;5.35;;;6.40;99.90;;;;;;4192876;28;20036;-72
2021/03/22 07:36:09;;;;;;;22.95;5.60;;;6.40;99.90;;;;;;4192142;28;20071;-72
2021/03/22 07:38:37;;;;;;;17.20;5.72;;;6.30;99.90;;;;;;4187201;28;20088;-74
2021/03/22 07:40:52;;;;;;;17.63;7.25;;;6.40;99.90;;;;;;4193339;28;20560;-72
2021/03/22 07:43:30;;;;;;;15.98;6.65;;;6.60;99.90;;;;;;4193285;28;20424;-72
2021/03/22 07:45:51;;;;;;;15.07;5.65;;;6.70;99.90;;;;;;4193156;28;20032;-72
2021/03/22 07:48:03;;;;;;;19.40;5.38;;;6.80;99.90;;;;;;4193137;28;20029;-72
2021/03/22 07:50:31;;;;;;;16.95;6.03;;;6.90;99.90;;;;;;4187816;28;20029;-72
2021/03/22 07:52:49;;;;;;;14.70;4.60;;;7.00;99.90;;;;;;4196117;28;20387;-72
2021/03/22 07:55:10;;;;;;;22.45;8.15;;;7.10;99.90;;;;;;4194760;28;20135;-72
2021/03/22 07:57:26;;;;;;;13.43;5.28;;;7.20;99.90;;;;;;4195782;28;20041;-72
2021/03/22 07:59:42;;;;;;;15.55;5.63;;;7.30;99.90;;;;;;4194663;28;20033;-72
2021/03/22 08:02:20;;;;;;;12.00;4.57;;;7.30;99.90;;;;;;4196064;28;20486;-72
2021/03/22 08:04:40;;;;;;;8.50;3.85;;;7.40;99.90;;;;;;4201508;28;20473;-72
2021/03/22 08:06:55;;;;;;;13.18;4.65;;;7.50;99.90;;;;;;4195707;28;20035;-73
2021/03/22 08:09:05;;;;;;;13.10;4.05;;;7.50;99.90;;;;;;4193273;28;20123;-72
2021/03/22 08:11:29;;;;;;;4.88;2.92;;;7.40;99.90;;;;;;4193637;28;20041;-73
2021/03/22 08:13:52;;;;;;;3.30;2.95;;;7.40;99.90;;;;;;4189957;28;20028;-72
2021/03/22 08:16:11;;;;;;;7.53;3.10;;;7.60;99.90;;;;;;4193540;28;20041;-72
2021/03/22 08:18:47;;;;;;;7.47;3.10;;;7.50;99.90;;;;;;4193975;28;20109;-72
2021/03/22 08:21:01;;;;;;;5.93;3.58;;;7.60;99.90;;;;;;4190721;28;20036;-72
2021/03/22 08:23:15;;;;;;;12.02;3.85;;;7.60;99.90;;;;;;4194134;28;20108;-72
2021/03/22 08:25:54;;;;;;;11.00;4.30;;;7.60;99.90;;;;;;4195385;28;20020;-72
2021/03/22 08:28:22;;;;;;;8.60;3.60;;;7.50;99.90;;;;;;4192586;28;20033;-72
2021/03/22 08:30:39;;;;;;;7.28;4.75;;;7.40;99.90;;;;;;4195258;28;20044;-72
2021/03/22 08:32:53;;;;;;;10.73;4.65;;;7.40;99.90;;;;;;4195220;28;20029;-72
2021/03/22 08:35:08;;;;;;;9.45;3.90;;;7.60;99.90;;;;;;4193933;28;20102;-73
2021/03/22 08:37:20;;;;;;;9.65;3.67;;;7.60;99.90;;;;;;4193996;28;20111;-74
2021/03/22 08:39:32;;;;;;;7.38;3.88;;;7.70;99.90;;;;;;4209306;28;20082;-72
2021/03/22 08:41:43;;;;;;;9.88;3.53;;;7.90;99.90;;;;;;4187226;28;20032;-71
2021/03/22 08:43:53;;;;;;;8.25;4.53;;;8.20;99.90;;;;;;4194260;28;20033;-71
2021/03/22 08:46:26;;;;;;;11.25;6.22;;;8.40;99.90;;;;;;4195123;28;20031;-72
2021/03/22 08:48:29;;;;;;;10.98;3.78;;;8.30;99.90;;;;;;4187355;28;20036;-72
2021/03/22 08:50:34;;;;;;;6.78;3.72;;;8.20;99.90;;;;;;4195057;28;20063;-72
2021/03/22 08:53:04;;;;;;;9.27;3.17;;;8.20;99.90;;;;;;4193639;28;20033;-72
2021/03/22 08:55:18;;;;;;;7.68;3.50;;;8.20;99.90;;;;;;4186548;28;20063;-72
2021/03/22 08:57:26;;;;;;;7.35;3.65;;;8.40;99.90;;;;;;4195212;28;20028;-72
2021/03/22 08:59:26;;;;;;;6.93;3.72;;;8.80;99.90;;;;;;4195334;28;20037;-72
2021/03/22 09:01:33;;;;;;;7.68;3.60;;;9.20;99.90;;;;;;4193756;28;20060;-72
2021/03/22 09:03:40;;;;;;;7.68;3.28;;;9.30;99.90;;;;;;4194805;28;20064;-72
2021/03/22 09:06:07;;;;;;;5.50;3.10;;;9.20;99.90;;;;;;4195399;28;20040;-72
2021/03/22 09:08:36;;;;;;;7.03;3.17;;;8.80;99.90;;;;;;4194857;28;20028;-72
2021/03/22 09:10:40;;;;;;;9.27;3.13;;;8.50;99.90;;;;;;4190126;28;20040;-73
2021/03/22 09:12:46;;;;;;;3.17;2.55;;;8.20;99.90;;;;;;4194953;28;20039;-72
2021/03/22 09:14:50;;;;;;;6.00;2.83;;;8.10;99.90;;;;;;4194897;28;20036;-73
2021/03/22 09:16:53;;;;;;;9.43;2.45;;;8.10;99.90;;;;;;4195068;28;20028;-73
2021/03/22 09:19:09;;;;;;;3.00;2.10;;;8.00;99.90;;;;;;4193525;28;20032;-74
2021/03/22 09:21:21;;;;;;;7.05;3.58;;;8.20;99.90;;;;;;4194665;28;20029;-72
2021/03/22 09:23:31;;;;;;;4.88;2.67;;;8.10;99.90;;;;;;4193584;28;20029;-73
2021/03/22 09:25:46;;;;;;;7.75;3.25;;;8.30;99.90;;;;;;4193653;28;20075;-72
2021/03/22 09:27:47;;;;;;;3.30;2.20;;;8.40;99.90;;;;;;4193312;28;20053;-72
2021/03/22 09:29:52;;;;;;;3.70;2.53;;;8.50;99.90;;;;;;4193305;28;20032;-71
2021/03/22 09:31:52;;;;;;;4.22;2.42;;;8.60;99.90;;;;;;4193204;28;20498;-71
2021/03/22 09:33:55;;;;;;;2.97;2.33;;;8.80;99.90;;;;;;4193576;28;20040;-72
2021/03/22 09:36:05;;;;;;;3.50;2.63;;;8.80;99.90;;;;;;4191682;28;20040;-72
2021/03/22 09:38:54;;;;;;;4.70;2.95;;;8.90;99.90;;;;;;4190138;28;20295;-72
2021/03/22 09:40:57;;;;;;;4.00;3.00;;;9.10;99.90;;;;;;4186420;28;20043;-72
2021/03/22 09:43:10;;;;;;;3.65;2.45;;;9.10;99.90;;;;;;4191497;28;20687;-71
2021/03/22 09:45:19;;;;;;;3.77;3.50;;;9.10;99.90;;;;;;4194783;28;20043;-71
2021/03/22 09:47:28;;;;;;;4.00;2.33;;;9.30;99.90;;;;;;4189099;28;20291;-71
2021/03/22 09:49:28;;;;;;;2.92;2.40;;;9.50;99.90;;;;;;4196209;28;20048;-71
2021/03/22 09:51:34;;;;;;;3.05;2.00;;;9.70;99.90;;;;;;4196041;28;20423;-71
2021/03/22 09:53:55;;;;;;;3.53;2.08;;;9.90;99.90;;;;;;4196176;28;20043;-71
2021/03/22 09:56:02;;;;;;;2.67;2.20;;;10.10;99.90;;;;;;4194414;28;20776;-72
2021/03/22 09:58:37;;;;;;;3.97;2.33;;;10.60;99.90;;;;;;4196453;28;20510;-71
2021/03/22 10:00:37;;;;;;;3.42;2.00;;;11.20;99.90;;;;;;4191207;28;20044;-71
2021/03/22 10:02:46;;;;;;;3.88;2.78;;;11.70;99.90;;;;;;4197871;28;20033;-72
2021/03/22 10:05:09;;;;;;;4.80;2.53;;;11.40;99.90;;;;;;4196860;28;20123;-72
2021/03/22 10:07:29;;;;;;;3.88;2.72;;;10.70;99.90;;;;;;4197107;28;20132;-72
2021/03/22 10:09:56;;;;;;;5.75;3.05;;;10.00;99.90;;;;;;4189744;28;20048;-72
2021/03/22 10:12:07;;;;;;;4.32;2.35;;;9.60;99.90;;;;;;4197866;28;20486;-73
2021/03/22 10:14:19;;;;;;;3.50;2.42;;;9.40;99.90;;;;;;4195474;28;20476;-73
2021/03/22 10:16:43;;;;;;;3.75;2.75;;;9.40;99.90;;;;;;4197824;28;20020;-72
2021/03/22 10:19:06;;;;;;;6.93;3.88;;;9.50;99.90;;;;;;4193638;28;20048;-73
2021/03/22 10:21:14;;;;;;;5.53;2.25;;;9.50;99.90;;;;;;4189919;28;20021;-73
2021/03/22 10:23:27;;;;;;;2.38;2.17;;;9.60;99.90;;;;;;4188527;28;20029;-73
2021/03/22 10:25:30;;;;;;;3.13;2.60;;;10.00;99.90;;;;;;4196809;28;20360;-73
2021/03/22 10:27:32;;;;;;;;;;;10.50;99.90;;;;;;4196984;28;20040;-73
2021/03/22 10:29:34;;;;;;;5.72;2.20;;;10.90;99.90;;;;;;4195405;28;19916;-71
2021/03/22 10:31:35;;;;;;;2.95;2.08;;;11.10;99.90;;;;;;4203642;28;20048;-72
2021/03/22 10:33:37;;;;;;;2.50;1.92;;;10.80;99.90;;;;;;4193798;28;20040;-72
2021/03/22 10:35:53;;;;;;;6.82;2.50;;;10.70;99.90;;;;;;4195091;28;20044;-73
2021/03/22 10:37:57;;;;;;;9.13;2.55;;;10.90;99.90;;;;;;4193431;28;20059;-72
2021/03/22 10:40:06;;;;;;;4.35;2.08;;;11.20;99.90;;;;;;4195935;28;20043;-73
2021/03/22 10:42:25;;;;;;;2.20;1.88;;;11.10;99.90;;;;;;4191039;28;20064;-73
2021/03/22 10:44:36;;;;;;;2.67;2.00;;;10.90;99.90;;;;;;4194415;28;20370;-71
2021/03/22 10:46:37;;;;;;;4.10;2.10;;;10.70;99.90;;;;;;4195288;28;20083;-72
2021/03/22 10:48:38;;;;;;;2.60;2.40;;;10.60;99.90;;;;;;4196878;28;20036;-73
2021/03/22 10:50:38;;;;;;;2.90;2.22;;;10.50;99.90;;;;;;4197867;28;20067;-73
2021/03/22 10:52:39;;;;;;;3.25;2.20;;;10.30;99.90;;;;;;4196676;28;20063;-73
2021/03/22 10:54:44;;;;;;;2.83;2.20;;;10.10;99.90;;;;;;4194056;28;20144;-73
2021/03/22 10:56:48;;;;;;;2.55;2.00;;;10.00;99.90;;;;;;4195390;28;20044;-73
2021/03/22 10:58:50;;;;;;;3.03;2.30;;;9.80;99.90;;;;;;4192558;28;20044;-72
2021/03/22 11:00:59;;;;;;;4.30;2.20;;;9.70;99.90;;;;;;4188396;28;20483;-72
2021/03/22 11:03:03;;;;;;;4.65;3.13;;;9.70;99.90;;;;;;4194444;28;20055;-72
2021/03/22 11:05:14;;;;;;;5.65;2.42;;;9.60;99.90;;;;;;4195839;28;20032;-72
2021/03/22 11:07:25;;;;;;;6.57;2.30;;;9.60;99.90;;;;;;4210079;28;20036;-72